sensor_id;sensor_type;location;lat;lon;timestamp;pressure;altitude;pressure_sealevel;temperature
65316;BMP280;51920;53.952;10.292;2023-03-11T00:00:12;99315.34;;;0.34
65316;BMP280;51920;53.952;10.292;2023-03-11T00:02:44;99315.16;;;0.27
65316;BMP280;51920;53.952;10.292;2023-03-11T00:05:32;99330.78;;;0.28
65316;BMP280;51920;53.952;10.292;2023-03-11T00:07:58;99326.25;;;0.29
65316;BMP280;51920;53.952;10.292;2023-03-11T00:10:29;99343.31;;;0.28
65316;BMP280;51920;53.952;10.292;2023-03-11T00:12:55;99343.22;;;0.24
65316;BMP280;51920;53.952;10.292;2023-03-11T00:15:21;99345.44;;;0.22
65316;BMP280;51920;53.952;10.292;2023-03-11T00:17:47;99344.91;;;0.16
65316;BMP280;51920;53.952;10.292;2023-03-11T00:20:33;99358.66;;;0.18
65316;BMP280;51920;53.952;10.292;2023-03-11T00:22:59;99360.88;;;0.16
65316;BMP280;51920;53.952;10.292;2023-03-11T00:25:28;99364.09;;;0.22
65316;BMP280;51920;53.952;10.292;2023-03-11T00:27:55;99376.16;;;0.19
65316;BMP280;51920;53.952;10.292;2023-03-11T00:30:21;99388.38;;;0.21
65316;BMP280;51920;53.952;10.292;2023-03-11T00:32:49;99392.50;;;0.18
65316;BMP280;51920;53.952;10.292;2023-03-11T00:35:18;99395.94;;;0.18
65316;BMP280;51920;53.952;10.292;2023-03-11T00:37:45;99383.06;;;0.08
65316;BMP280;51920;53.952;10.292;2023-03-11T00:40:17;99387.06;;;0.27
65316;BMP280;51920;53.952;10.292;2023-03-11T00:42:42;99393.50;;;0.13
65316;BMP280;51920;53.952;10.292;2023-03-11T00:45:09;99401.91;;;0.15
65316;BMP280;51920;53.952;10.292;2023-03-11T00:47:34;99400.72;;;0.13
65316;BMP280;51920;53.952;10.292;2023-03-11T00:50:00;99398.03;;;0.13
65316;BMP280;51920;53.952;10.292;2023-03-11T00:52:25;99417.00;;;0.11
65316;BMP280;51920;53.952;10.292;2023-03-11T00:54:53;99401.59;;;0.05
65316;BMP280;51920;53.952;10.292;2023-03-11T00:57:19;99422.44;;;0.15
65316;BMP280;51920;53.952;10.292;2023-03-11T00:59:44;99415.34;;;0.07
65316;BMP280;51920;53.952;10.292;2023-03-11T01:02:10;99422.56;;;0.06
65316;BMP280;51920;53.952;10.292;2023-03-11T01:04:35;99421.47;;;0.07
65316;BMP280;51920;53.952;10.292;2023-03-11T01:07:00;99419.78;;;0.03
65316;BMP280;51920;53.952;10.292;2023-03-11T01:09:26;99424.34;;;0.02
65316;BMP280;51920;53.952;10.292;2023-03-11T01:11:51;99437.53;;;0.11
65316;BMP280;51920;53.952;10.292;2023-03-11T01:14:19;99440.31;;;0.14
65316;BMP280;51920;53.952;10.292;2023-03-11T01:16:44;99434.97;;;0.02
65316;BMP280;51920;53.952;10.292;2023-03-11T01:19:11;99452.28;;;0.08
65316;BMP280;51920;53.952;10.292;2023-03-11T01:21:36;99457.16;;;0.06
65316;BMP280;51920;53.952;10.292;2023-03-11T01:24:02;99462.03;;;0.04
65316;BMP280;51920;53.952;10.292;2023-03-11T01:26:27;99458.59;;;0.04
65316;BMP280;51920;53.952;10.292;2023-03-11T01:28:54;99466.13;;;0.02
65316;BMP280;51920;53.952;10.292;2023-03-11T01:31:20;99466.81;;;-0.02
65316;BMP280;51920;53.952;10.292;2023-03-11T01:33:45;99476.88;;;0.05
65316;BMP280;51920;53.952;10.292;2023-03-11T01:36:10;99475.13;;;-0.03
65316;BMP280;51920;53.952;10.292;2023-03-11T01:38:36;99480.56;;;0.01
65316;BMP280;51920;53.952;10.292;2023-03-11T01:41:01;99477.56;;;0.02
65316;BMP280;51920;53.952;10.292;2023-03-11T01:46:23;99492.53;;;0.07
65316;BMP280;51920;53.952;10.292;2023-03-11T01:48:53;99501.41;;;0.11
65316;BMP280;51920;53.952;10.292;2023-03-11T01:51:35;99500.94;;;0.09
65316;BMP280;51920;53.952;10.292;2023-03-11T01:54:08;99499.50;;;-0.01
65316;BMP280;51920;53.952;10.292;2023-03-11T01:56:35;99520.06;;;0.11
65316;BMP280;51920;53.952;10.292;2023-03-11T01:59:01;99512.59;;;0.04
65316;BMP280;51920;53.952;10.292;2023-03-11T02:01:27;99528.03;;;0.11
65316;BMP280;51920;53.952;10.292;2023-03-11T02:03:54;99536.25;;;0.18
65316;BMP280;51920;53.952;10.292;2023-03-11T02:06:21;99534.34;;;0.06
65316;BMP280;51920;53.952;10.292;2023-03-11T02:08:47;99526.91;;;-0.01
65316;BMP280;51920;53.952;10.292;2023-03-11T02:11:16;99533.91;;;0.04
65316;BMP280;51920;53.952;10.292;2023-03-11T02:13:44;99532.00;;;-0.08
65316;BMP280;51920;53.952;10.292;2023-03-11T02:16:10;99538.88;;;-0.07
65316;BMP280;51920;53.952;10.292;2023-03-11T02:18:38;99543.41;;;-0.07
65316;BMP280;51920;53.952;10.292;2023-03-11T02:21:17;99542.97;;;-0.09
65316;BMP280;51920;53.952;10.292;2023-03-11T02:26:40;99554.72;;;-0.10
65316;BMP280;51920;53.952;10.292;2023-03-11T02:29:08;99544.72;;;-0.13
65316;BMP280;51920;53.952;10.292;2023-03-11T02:31:37;99549.19;;;-0.05
65316;BMP280;51920;53.952;10.292;2023-03-11T02:34:07;99551.50;;;-0.16
65316;BMP280;51920;53.952;10.292;2023-03-11T02:36:41;99551.81;;;-0.17
65316;BMP280;51920;53.952;10.292;2023-03-11T02:39:09;99565.22;;;-0.26
65316;BMP280;51920;53.952;10.292;2023-03-11T02:41:39;99571.16;;;-0.29
65316;BMP280;51920;53.952;10.292;2023-03-11T02:44:08;99573.22;;;-0.35
65316;BMP280;51920;53.952;10.292;2023-03-11T02:46:35;99591.69;;;-0.30
65316;BMP280;51920;53.952;10.292;2023-03-11T02:49:02;99585.25;;;-0.29
65316;BMP280;51920;53.952;10.292;2023-03-11T02:51:28;99591.94;;;-0.23
65316;BMP280;51920;53.952;10.292;2023-03-11T02:53:56;99602.69;;;-0.19
65316;BMP280;51920;53.952;10.292;2023-03-11T02:56:24;99602.56;;;-0.23
65316;BMP280;51920;53.952;10.292;2023-03-11T02:58:49;99609.91;;;-0.20
65316;BMP280;51920;53.952;10.292;2023-03-11T03:01:15;99610.56;;;-0.23
65316;BMP280;51920;53.952;10.292;2023-03-11T03:03:43;99606.00;;;-0.22
65316;BMP280;51920;53.952;10.292;2023-03-11T03:06:09;99615.34;;;-0.16
65316;BMP280;51920;53.952;10.292;2023-03-11T03:08:35;99626.91;;;-0.12
65316;BMP280;51920;53.952;10.292;2023-03-11T03:11:00;99626.78;;;-0.15
65316;BMP280;51920;53.952;10.292;2023-03-11T03:13:28;99637.09;;;-0.14
65316;BMP280;51920;53.952;10.292;2023-03-11T03:15:54;99629.19;;;-0.23
65316;BMP280;51920;53.952;10.292;2023-03-11T03:18:20;99639.63;;;-0.17
65316;BMP280;51920;53.952;10.292;2023-03-11T03:20:45;99646.03;;;-0.18
65316;BMP280;51920;53.952;10.292;2023-03-11T03:23:11;99651.38;;;-0.18
65316;BMP280;51920;53.952;10.292;2023-03-11T03:25:36;99637.50;;;-0.24
65316;BMP280;51920;53.952;10.292;2023-03-11T03:28:05;99660.91;;;-0.17
65316;BMP280;51920;53.952;10.292;2023-03-11T03:30:34;99661.25;;;-0.19
65316;BMP280;51920;53.952;10.292;2023-03-11T03:32:59;99656.03;;;-0.15
65316;BMP280;51920;53.952;10.292;2023-03-11T03:35:25;99668.72;;;-0.12
65316;BMP280;51920;53.952;10.292;2023-03-11T03:37:56;99657.00;;;-0.20
65316;BMP280;51920;53.952;10.292;2023-03-11T03:40:22;99673.28;;;-0.22
65316;BMP280;51920;53.952;10.292;2023-03-11T03:42:48;99681.28;;;-0.22
65316;BMP280;51920;53.952;10.292;2023-03-11T03:45:15;99685.56;;;-0.29
65316;BMP280;51920;53.952;10.292;2023-03-11T03:47:40;99688.06;;;-0.33
65316;BMP280;51920;53.952;10.292;2023-03-11T03:50:08;99693.56;;;-0.38
65316;BMP280;51920;53.952;10.292;2023-03-11T03:52:35;99698.25;;;-0.35
65316;BMP280;51920;53.952;10.292;2023-03-11T03:55:01;99712.50;;;-0.31
65316;BMP280;51920;53.952;10.292;2023-03-11T03:57:28;99712.00;;;-0.33
65316;BMP280;51920;53.952;10.292;2023-03-11T03:59:54;99705.00;;;-0.38
65316;BMP280;51920;53.952;10.292;2023-03-11T04:02:19;99713.78;;;-0.37
65316;BMP280;51920;53.952;10.292;2023-03-11T04:04:45;99709.41;;;-0.42
65316;BMP280;51920;53.952;10.292;2023-03-11T04:07:11;99730.69;;;-0.42
65316;BMP280;51920;53.952;10.292;2023-03-11T04:09:41;99719.16;;;-0.46
65316;BMP280;51920;53.952;10.292;2023-03-11T04:12:15;99720.28;;;-0.55
65316;BMP280;51920;53.952;10.292;2023-03-11T04:14:42;99728.16;;;-0.68
65316;BMP280;51920;53.952;10.292;2023-03-11T04:17:12;99724.41;;;-0.67
65316;BMP280;51920;53.952;10.292;2023-03-11T04:19:39;99728.19;;;-0.77
65316;BMP280;51920;53.952;10.292;2023-03-11T04:22:06;99726.22;;;-0.80
65316;BMP280;51920;53.952;10.292;2023-03-11T04:24:32;99727.91;;;-0.84
65316;BMP280;51920;53.952;10.292;2023-03-11T04:26:57;99734.50;;;-0.81
65316;BMP280;51920;53.952;10.292;2023-03-11T04:29:23;99741.72;;;-0.90
65316;BMP280;51920;53.952;10.292;2023-03-11T04:31:51;99726.75;;;-1.04
65316;BMP280;51920;53.952;10.292;2023-03-11T04:34:16;99742.56;;;-1.07
65316;BMP280;51920;53.952;10.292;2023-03-11T04:36:42;99741.34;;;-1.10
65316;BMP280;51920;53.952;10.292;2023-03-11T04:39:10;99740.69;;;-1.16
65316;BMP280;51920;53.952;10.292;2023-03-11T04:41:40;99745.56;;;-1.18
65316;BMP280;51920;53.952;10.292;2023-03-11T04:44:06;99754.94;;;-1.20
65316;BMP280;51920;53.952;10.292;2023-03-11T04:46:32;99760.88;;;-1.23
65316;BMP280;51920;53.952;10.292;2023-03-11T04:48:58;99762.63;;;-1.27
65316;BMP280;51920;53.952;10.292;2023-03-11T04:51:24;99759.34;;;-1.33
65316;BMP280;51920;53.952;10.292;2023-03-11T04:53:50;99770.44;;;-1.31
65316;BMP280;51920;53.952;10.292;2023-03-11T04:56:16;99778.53;;;-1.36
65316;BMP280;51920;53.952;10.292;2023-03-11T04:58:41;99768.88;;;-1.49
65316;BMP280;51920;53.952;10.292;2023-03-11T05:01:07;99768.72;;;-1.53
65316;BMP280;51920;53.952;10.292;2023-03-11T05:03:32;99774.19;;;-1.49
65316;BMP280;51920;53.952;10.292;2023-03-11T05:05:58;99773.72;;;-1.60
65316;BMP280;51920;53.952;10.292;2023-03-11T05:08:25;99781.84;;;-1.57
65316;BMP280;51920;53.952;10.292;2023-03-11T05:10:51;99787.44;;;-1.58
65316;BMP280;51920;53.952;10.292;2023-03-11T05:13:20;99792.59;;;-1.62
65316;BMP280;51920;53.952;10.292;2023-03-11T05:15:46;99791.53;;;-1.69
65316;BMP280;51920;53.952;10.292;2023-03-11T05:18:13;99789.81;;;-1.74
65316;BMP280;51920;53.952;10.292;2023-03-11T05:20:39;99799.03;;;-1.72
65316;BMP280;51920;53.952;10.292;2023-03-11T05:23:05;99802.28;;;-1.75
65316;BMP280;51920;53.952;10.292;2023-03-11T05:25:33;99816.97;;;-1.77
65316;BMP280;51920;53.952;10.292;2023-03-11T05:28:00;99807.44;;;-1.87
65316;BMP280;51920;53.952;10.292;2023-03-11T05:30:26;99825.25;;;-1.79
65316;BMP280;51920;53.952;10.292;2023-03-11T05:32:51;99819.63;;;-1.86
65316;BMP280;51920;53.952;10.292;2023-03-11T05:35:17;99820.41;;;-1.85
65316;BMP280;51920;53.952;10.292;2023-03-11T05:37:42;99831.44;;;-1.92
65316;BMP280;51920;53.952;10.292;2023-03-11T05:40:10;99846.75;;;-1.89
65316;BMP280;51920;53.952;10.292;2023-03-11T05:42:36;99845.19;;;-1.90
65316;BMP280;51920;53.952;10.292;2023-03-11T05:45:05;99846.59;;;-1.93
65316;BMP280;51920;53.952;10.292;2023-03-11T05:47:31;99850.19;;;-1.97
65316;BMP280;51920;53.952;10.292;2023-03-11T05:49:57;99861.13;;;-1.90
65316;BMP280;51920;53.952;10.292;2023-03-11T05:52:22;99857.94;;;-2.01
65316;BMP280;51920;53.952;10.292;2023-03-11T05:54:50;99857.66;;;-1.99
65316;BMP280;51920;53.952;10.292;2023-03-11T05:57:18;99870.91;;;-1.99
65316;BMP280;51920;53.952;10.292;2023-03-11T05:59:44;99881.22;;;-1.98
65316;BMP280;51920;53.952;10.292;2023-03-11T06:02:10;99876.72;;;-1.97
65316;BMP280;51920;53.952;10.292;2023-03-11T06:04:36;99851.69;;;-2.14
65316;BMP280;51920;53.952;10.292;2023-03-11T06:07:02;99878.41;;;-2.01
65316;BMP280;51920;53.952;10.292;2023-03-11T06:09:31;99880.59;;;-1.95
65316;BMP280;51920;53.952;10.292;2023-03-11T06:12:01;99888.41;;;-1.98
65316;BMP280;51920;53.952;10.292;2023-03-11T06:14:35;99888.53;;;-2.03
65316;BMP280;51920;53.952;10.292;2023-03-11T06:17:03;99884.81;;;-2.02
65316;BMP280;51920;53.952;10.292;2023-03-11T06:19:29;99904.16;;;-2.02
65316;BMP280;51920;53.952;10.292;2023-03-11T06:21:54;99905.41;;;-1.99
65316;BMP280;51920;53.952;10.292;2023-03-11T06:24:19;99898.09;;;-2.02
65316;BMP280;51920;53.952;10.292;2023-03-11T06:26:50;99903.38;;;-2.02
65316;BMP280;51920;53.952;10.292;2023-03-11T06:29:15;99909.03;;;-1.95
65316;BMP280;51920;53.952;10.292;2023-03-11T06:31:42;99918.91;;;-1.87
65316;BMP280;51920;53.952;10.292;2023-03-11T06:34:10;99918.69;;;-1.91
65316;BMP280;51920;53.952;10.292;2023-03-11T06:36:36;99921.41;;;-1.82
65316;BMP280;51920;53.952;10.292;2023-03-11T06:39:02;99935.81;;;-1.65
65316;BMP280;51920;53.952;10.292;2023-03-11T06:41:32;99930.69;;;-1.53
65316;BMP280;51920;53.952;10.292;2023-03-11T06:43:58;99939.94;;;-1.42
65316;BMP280;51920;53.952;10.292;2023-03-11T06:46:24;99945.44;;;-1.21
65316;BMP280;51920;53.952;10.292;2023-03-11T06:48:51;99949.50;;;-1.06
65316;BMP280;51920;53.952;10.292;2023-03-11T06:51:19;99948.44;;;-1.05
65316;BMP280;51920;53.952;10.292;2023-03-11T06:53:50;99954.97;;;-0.93
65316;BMP280;51920;53.952;10.292;2023-03-11T06:56:18;99969.50;;;-0.65
65316;BMP280;51920;53.952;10.292;2023-03-11T06:58:48;99971.69;;;-0.67
65316;BMP280;51920;53.952;10.292;2023-03-11T07:01:20;99985.13;;;-0.46
65316;BMP280;51920;53.952;10.292;2023-03-11T07:03:47;99973.03;;;-0.34
65316;BMP280;51920;53.952;10.292;2023-03-11T07:06:16;99970.50;;;-0.13
65316;BMP280;51920;53.952;10.292;2023-03-11T07:08:45;99983.75;;;0.04
65316;BMP280;51920;53.952;10.292;2023-03-11T07:11:14;99993.13;;;0.10
65316;BMP280;51920;53.952;10.292;2023-03-11T07:13:40;99991.25;;;0.11
65316;BMP280;51920;53.952;10.292;2023-03-11T07:16:11;99998.25;;;0.24
65316;BMP280;51920;53.952;10.292;2023-03-11T07:18:37;100003.09;;;0.22
65316;BMP280;51920;53.952;10.292;2023-03-11T07:21:05;100008.72;;;0.29
65316;BMP280;51920;53.952;10.292;2023-03-11T07:23:31;99998.69;;;0.26
65316;BMP280;51920;53.952;10.292;2023-03-11T07:25:56;99995.34;;;0.38
65316;BMP280;51920;53.952;10.292;2023-03-11T07:28:23;100019.38;;;0.59
65316;BMP280;51920;53.952;10.292;2023-03-11T07:30:49;100019.69;;;0.57
65316;BMP280;51920;53.952;10.292;2023-03-11T07:33:15;100010.56;;;0.58
65316;BMP280;51920;53.952;10.292;2023-03-11T07:35:40;100007.44;;;0.56
65316;BMP280;51920;53.952;10.292;2023-03-11T07:38:06;100007.72;;;0.64
65316;BMP280;51920;53.952;10.292;2023-03-11T07:40:32;100025.94;;;0.62
65316;BMP280;51920;53.952;10.292;2023-03-11T07:42:58;100021.00;;;0.72
65316;BMP280;51920;53.952;10.292;2023-03-11T07:45:23;100037.13;;;0.76
65316;BMP280;51920;53.952;10.292;2023-03-11T07:47:49;100042.53;;;0.88
65316;BMP280;51920;53.952;10.292;2023-03-11T07:50:14;100038.47;;;1.12
65316;BMP280;51920;53.952;10.292;2023-03-11T07:52:42;100044.91;;;1.32
65316;BMP280;51920;53.952;10.292;2023-03-11T07:55:07;100054.81;;;1.44
65316;BMP280;51920;53.952;10.292;2023-03-11T07:57:33;100057.63;;;1.35
65316;BMP280;51920;53.952;10.292;2023-03-11T07:59:59;100047.91;;;1.30
65316;BMP280;51920;53.952;10.292;2023-03-11T08:02:24;100061.88;;;1.27
65316;BMP280;51920;53.952;10.292;2023-03-11T08:04:50;100064.75;;;1.22
65316;BMP280;51920;53.952;10.292;2023-03-11T08:07:15;100073.47;;;1.10
65316;BMP280;51920;53.952;10.292;2023-03-11T08:09:41;100073.72;;;1.39
65316;BMP280;51920;53.952;10.292;2023-03-11T08:12:06;100067.31;;;1.52
65316;BMP280;51920;53.952;10.292;2023-03-11T08:14:32;100080.47;;;1.57
65316;BMP280;51920;53.952;10.292;2023-03-11T08:16:57;100087.94;;;1.85
65316;BMP280;51920;53.952;10.292;2023-03-11T08:19:23;100090.38;;;2.02
65316;BMP280;51920;53.952;10.292;2023-03-11T08:21:48;100086.69;;;1.95
65316;BMP280;51920;53.952;10.292;2023-03-11T08:24:14;100096.31;;;2.08
65316;BMP280;51920;53.952;10.292;2023-03-11T08:26:39;100098.53;;;2.18
65316;BMP280;51920;53.952;10.292;2023-03-11T08:29:05;100104.00;;;2.22
65316;BMP280;51920;53.952;10.292;2023-03-11T08:31:32;100109.13;;;2.39
65316;BMP280;51920;53.952;10.292;2023-03-11T08:34:00;100107.94;;;2.24
65316;BMP280;51920;53.952;10.292;2023-03-11T08:36:26;100107.81;;;2.45
65316;BMP280;51920;53.952;10.292;2023-03-11T08:38:52;100101.78;;;2.85
65316;BMP280;51920;53.952;10.292;2023-03-11T08:41:18;100104.47;;;2.73
65316;BMP280;51920;53.952;10.292;2023-03-11T08:43:43;100124.78;;;3.27
65316;BMP280;51920;53.952;10.292;2023-03-11T08:46:14;100124.19;;;3.34
65316;BMP280;51920;53.952;10.292;2023-03-11T08:48:42;100113.34;;;3.71
65316;BMP280;51920;53.952;10.292;2023-03-11T08:51:09;100129.22;;;4.07
65316;BMP280;51920;53.952;10.292;2023-03-11T08:53:35;100136.34;;;4.16
65316;BMP280;51920;53.952;10.292;2023-03-11T08:56:02;100139.19;;;4.39
65316;BMP280;51920;53.952;10.292;2023-03-11T08:58:27;100132.06;;;4.62
65316;BMP280;51920;53.952;10.292;2023-03-11T09:00:53;100133.69;;;4.83
65316;BMP280;51920;53.952;10.292;2023-03-11T09:03:18;100141.41;;;5.04
65316;BMP280;51920;53.952;10.292;2023-03-11T09:05:44;100163.75;;;5.08
65316;BMP280;51920;53.952;10.292;2023-03-11T09:08:09;100163.00;;;5.89
65316;BMP280;51920;53.952;10.292;2023-03-11T09:10:35;100170.63;;;5.64
65316;BMP280;51920;53.952;10.292;2023-03-11T09:13:00;100163.34;;;6.11
65316;BMP280;51920;53.952;10.292;2023-03-11T09:15:26;100173.16;;;5.99
65316;BMP280;51920;53.952;10.292;2023-03-11T09:17:51;100162.34;;;5.96
65316;BMP280;51920;53.952;10.292;2023-03-11T09:20:18;100180.09;;;5.77
65316;BMP280;51920;53.952;10.292;2023-03-11T09:22:43;100173.81;;;6.39
65316;BMP280;51920;53.952;10.292;2023-03-11T09:25:11;100166.38;;;6.05
65316;BMP280;51920;53.952;10.292;2023-03-11T09:27:37;100169.22;;;6.39
65316;BMP280;51920;53.952;10.292;2023-03-11T09:30:03;100173.56;;;5.39
65316;BMP280;51920;53.952;10.292;2023-03-11T09:32:28;100178.13;;;5.00
65316;BMP280;51920;53.952;10.292;2023-03-11T09:34:54;100185.03;;;6.18
65316;BMP280;51920;53.952;10.292;2023-03-11T09:37:19;100185.31;;;5.90
65316;BMP280;51920;53.952;10.292;2023-03-11T09:39:45;100189.25;;;6.95
65316;BMP280;51920;53.952;10.292;2023-03-11T09:42:28;100194.09;;;7.13
65316;BMP280;51920;53.952;10.292;2023-03-11T09:45:14;100201.00;;;7.10
65316;BMP280;51920;53.952;10.292;2023-03-11T09:58:08;100210.44;;;7.27
65316;BMP280;51920;53.952;10.292;2023-03-11T10:00:35;100215.72;;;7.84
65316;BMP280;51920;53.952;10.292;2023-03-11T10:03:01;100219.41;;;8.09
65316;BMP280;51920;53.952;10.292;2023-03-11T10:05:28;100214.78;;;7.05
65316;BMP280;51920;53.952;10.292;2023-03-11T10:08:11;100219.41;;;7.68
65316;BMP280;51920;53.952;10.292;2023-03-11T10:10:50;100209.13;;;7.44
65316;BMP280;51920;53.952;10.292;2023-03-11T10:13:28;100219.75;;;7.63
65316;BMP280;51920;53.952;10.292;2023-03-11T10:16:13;100216.50;;;7.51
65316;BMP280;51920;53.952;10.292;2023-03-11T10:19:00;100223.31;;;7.75
65316;BMP280;51920;53.952;10.292;2023-03-11T10:24:37;100226.41;;;7.43
65316;BMP280;51920;53.952;10.292;2023-03-11T10:27:13;100227.50;;;7.68
65316;BMP280;51920;53.952;10.292;2023-03-11T10:30:05;100229.19;;;6.90
65316;BMP280;51920;53.952;10.292;2023-03-11T10:32:38;100235.78;;;7.22
65316;BMP280;51920;53.952;10.292;2023-03-11T10:35:20;100238.41;;;6.92
65316;BMP280;51920;53.952;10.292;2023-03-11T10:40:43;100239.25;;;7.53
65316;BMP280;51920;53.952;10.292;2023-03-11T10:43:50;100247.69;;;6.91
65316;BMP280;51920;53.952;10.292;2023-03-11T10:46:23;100243.75;;;6.39
65316;BMP280;51920;53.952;10.292;2023-03-11T10:48:49;100246.78;;;6.83
65316;BMP280;51920;53.952;10.292;2023-03-11T10:51:20;100242.84;;;6.77
65316;BMP280;51920;53.952;10.292;2023-03-11T10:53:55;100245.69;;;6.65
65316;BMP280;51920;53.952;10.292;2023-03-11T10:58:54;100246.31;;;6.32
65316;BMP280;51920;53.952;10.292;2023-03-11T11:01:20;100227.56;;;6.35
65316;BMP280;51920;53.952;10.292;2023-03-11T11:03:48;100232.72;;;5.82
65316;BMP280;51920;53.952;10.292;2023-03-11T11:06:31;100248.78;;;6.63
65316;BMP280;51920;53.952;10.292;2023-03-11T11:09:16;100240.53;;;6.30
65316;BMP280;51920;53.952;10.292;2023-03-11T11:12:04;100250.31;;;6.88
65316;BMP280;51920;53.952;10.292;2023-03-11T11:14:49;100246.84;;;6.37
65316;BMP280;51920;53.952;10.292;2023-03-11T11:17:35;100232.28;;;6.19
65316;BMP280;51920;53.952;10.292;2023-03-11T11:20:02;100238.25;;;6.32
65316;BMP280;51920;53.952;10.292;2023-03-11T11:22:37;100231.75;;;6.10
65316;BMP280;51920;53.952;10.292;2023-03-11T11:25:23;100228.16;;;5.82
65316;BMP280;51920;53.952;10.292;2023-03-11T11:27:59;100237.16;;;6.13
65316;BMP280;51920;53.952;10.292;2023-03-11T11:30:26;100238.91;;;6.25
65316;BMP280;51920;53.952;10.292;2023-03-11T11:32:52;100240.00;;;6.43
65316;BMP280;51920;53.952;10.292;2023-03-11T11:35:22;100242.53;;;6.13
65316;BMP280;51920;53.952;10.292;2023-03-11T11:37:51;100229.00;;;5.86
65316;BMP280;51920;53.952;10.292;2023-03-11T11:40:24;100223.16;;;5.61
65316;BMP280;51920;53.952;10.292;2023-03-11T11:43:00;100226.09;;;5.95
65316;BMP280;51920;53.952;10.292;2023-03-11T11:45:35;100231.19;;;5.81
65316;BMP280;51920;53.952;10.292;2023-03-11T11:50:56;100231.97;;;5.81
65316;BMP280;51920;53.952;10.292;2023-03-11T11:53:24;100232.88;;;6.09
65316;BMP280;51920;53.952;10.292;2023-03-11T11:55:52;100225.34;;;5.56
65316;BMP280;51920;53.952;10.292;2023-03-11T11:58:19;100219.16;;;5.55
65316;BMP280;51920;53.952;10.292;2023-03-11T12:01:06;100213.81;;;5.75
65316;BMP280;51920;53.952;10.292;2023-03-11T12:06:26;100225.38;;;5.98
65316;BMP280;51920;53.952;10.292;2023-03-11T12:11:43;100212.44;;;5.65
65316;BMP280;51920;53.952;10.292;2023-03-11T12:14:19;100219.56;;;5.96
65316;BMP280;51920;53.952;10.292;2023-03-11T12:16:54;100214.84;;;6.09
65316;BMP280;51920;53.952;10.292;2023-03-11T12:19:38;100212.94;;;5.90
65316;BMP280;51920;53.952;10.292;2023-03-11T12:25:07;100193.19;;;5.59
65316;BMP280;51920;53.952;10.292;2023-03-11T12:28:11;100195.84;;;5.79
65316;BMP280;51920;53.952;10.292;2023-03-11T12:30:42;100190.34;;;6.14
65316;BMP280;51920;53.952;10.292;2023-03-11T12:33:28;100201.94;;;6.18
65316;BMP280;51920;53.952;10.292;2023-03-11T12:35:56;100194.31;;;6.24
65316;BMP280;51920;53.952;10.292;2023-03-11T12:38:34;100187.88;;;6.29
65316;BMP280;51920;53.952;10.292;2023-03-11T12:41:04;100192.88;;;6.07
65316;BMP280;51920;53.952;10.292;2023-03-11T12:45:59;100192.22;;;5.91
65316;BMP280;51920;53.952;10.292;2023-03-11T12:51:05;100189.03;;;5.65
65316;BMP280;51920;53.952;10.292;2023-03-11T12:53:49;100189.41;;;5.64
65316;BMP280;51920;53.952;10.292;2023-03-11T13:01:31;100175.34;;;5.51
65316;BMP280;51920;53.952;10.292;2023-03-11T13:04:14;100177.31;;;5.35
65316;BMP280;51920;53.952;10.292;2023-03-11T13:07:03;100178.88;;;5.36
65316;BMP280;51920;53.952;10.292;2023-03-11T13:09:31;100179.03;;;5.43
65316;BMP280;51920;53.952;10.292;2023-03-11T13:11:56;100181.13;;;5.53
65316;BMP280;51920;53.952;10.292;2023-03-11T13:14:29;100181.13;;;5.73
65316;BMP280;51920;53.952;10.292;2023-03-11T13:16:56;100188.88;;;5.97
65316;BMP280;51920;53.952;10.292;2023-03-11T13:21:51;100181.81;;;5.89
65316;BMP280;51920;53.952;10.292;2023-03-11T13:32:05;100185.13;;;5.79
65316;BMP280;51920;53.952;10.292;2023-03-11T13:42:50;100194.56;;;5.34
65316;BMP280;51920;53.952;10.292;2023-03-11T13:47:52;100199.44;;;5.28
65316;BMP280;51920;53.952;10.292;2023-03-11T13:50:25;100190.75;;;5.35
65316;BMP280;51920;53.952;10.292;2023-03-11T13:52:53;100199.66;;;5.39
65316;BMP280;51920;53.952;10.292;2023-03-11T13:55:31;100201.31;;;5.43
65316;BMP280;51920;53.952;10.292;2023-03-11T13:57:58;100188.34;;;5.49
65316;BMP280;51920;53.952;10.292;2023-03-11T14:00:26;100199.47;;;5.48
65316;BMP280;51920;53.952;10.292;2023-03-11T14:03:01;100188.84;;;5.55
65316;BMP280;51920;53.952;10.292;2023-03-11T14:05:35;100195.41;;;5.57
65316;BMP280;51920;53.952;10.292;2023-03-11T14:10:50;100194.38;;;6.04
65316;BMP280;51920;53.952;10.292;2023-03-11T14:13:17;100191.94;;;6.19
65316;BMP280;51920;53.952;10.292;2023-03-11T14:15:51;100206.91;;;5.97
65316;BMP280;51920;53.952;10.292;2023-03-11T14:18:31;100200.38;;;5.98
65316;BMP280;51920;53.952;10.292;2023-03-11T14:20:58;100204.03;;;6.05
65316;BMP280;51920;53.952;10.292;2023-03-11T14:23:28;100201.78;;;5.88
65316;BMP280;51920;53.952;10.292;2023-03-11T14:26:04;100206.13;;;5.96
65316;BMP280;51920;53.952;10.292;2023-03-11T14:28:33;100209.84;;;5.88
65316;BMP280;51920;53.952;10.292;2023-03-11T14:31:01;100198.22;;;5.64
65316;BMP280;51920;53.952;10.292;2023-03-11T14:33:27;100203.31;;;5.70
65316;BMP280;51920;53.952;10.292;2023-03-11T14:35:55;100196.41;;;5.69
65316;BMP280;51920;53.952;10.292;2023-03-11T14:38:31;100198.16;;;5.80
65316;BMP280;51920;53.952;10.292;2023-03-11T14:40:59;100191.13;;;5.95
65316;BMP280;51920;53.952;10.292;2023-03-11T14:43:26;100197.78;;;5.82
65316;BMP280;51920;53.952;10.292;2023-03-11T14:45:53;100197.25;;;5.73
65316;BMP280;51920;53.952;10.292;2023-03-11T14:48:29;100200.78;;;5.57
65316;BMP280;51920;53.952;10.292;2023-03-11T14:50:58;100206.28;;;5.64
65316;BMP280;51920;53.952;10.292;2023-03-11T14:53:35;100211.91;;;5.56
65316;BMP280;51920;53.952;10.292;2023-03-11T14:56:05;100206.25;;;5.61
65316;BMP280;51920;53.952;10.292;2023-03-11T14:58:45;100217.63;;;5.54
65316;BMP280;51920;53.952;10.292;2023-03-11T15:01:25;100222.41;;;5.64
65316;BMP280;51920;53.952;10.292;2023-03-11T15:06:28;100210.41;;;5.39
65316;BMP280;51920;53.952;10.292;2023-03-11T15:11:43;100216.81;;;5.54
65316;BMP280;51920;53.952;10.292;2023-03-11T15:14:19;100209.78;;;5.45
65316;BMP280;51920;53.952;10.292;2023-03-11T15:16:45;100204.19;;;5.54
65316;BMP280;51920;53.952;10.292;2023-03-11T15:21:52;100210.69;;;5.53
65316;BMP280;51920;53.952;10.292;2023-03-11T15:24:23;100208.13;;;5.41
65316;BMP280;51920;53.952;10.292;2023-03-11T15:27:02;100201.22;;;5.40